Miami, Florida
Traffic Map
Current Weather Conditions
Miami, Florida
Scattered Clouds
Scattered Clouds
27°
Feels Like: 28°
Wind Chill: 27° Ceiling: Unl
Heat Index: 28° Visibility: 10mi
Dew Point: 20° Wind: 5mph
Humidity: 67% Direction: 170° (S)
Pressure: 30in Gusts: 0mph
Raw Report DataKMIA 190353Z 17004KT 10SM FEW030 FEW090 SCT300 27/20 A3000 RMK AO2 SLP159 FRQ LTGIC DSNT N CB DSNT N-NE T02670200
Traffic Incident Summary
Active as of:
Severity:
Category:
InformationThere was an issue retrieving the traffic information for this location. Please try a different location or try again shortly.
Advertisements
Track Severe Weather on mobile